Time;durP1;ratioP1;P1;durP2;ratioP2;P2;SDS_P1;SDS_P2;PMS_P1;PMS_P2;Temp;Humidity;BMP_temperature;BMP_pressure;BME280_temperature;BME280_humidity;BME280_pressure;Samples;Min_cycle;Max_cycle;Signal;HPM_P1;HPM_P2
2024/03/05 05:11:25;;;;;;;6.00;3.70;;;17.50;66.50;;;;;;6113557;22;20192;-85
2024/03/05 05:14:22;;;;;;;4.88;3.20;;;17.50;66.60;;;;;;6204153;23;20178;-86
2024/03/05 05:17:23;;;;;;;4.80;3.60;;;17.50;66.40;;;;;;6179886;23;20174;-85
2024/03/05 05:20:00;;;;;;;5.10;3.58;;;17.50;66.60;;;;;;6178907;23;20162;-85
2024/03/05 05:22:33;;;;;;;5.53;3.95;;;17.50;66.60;;;;;;6130423;23;20263;-86
2024/03/05 05:25:43;;;;;;;4.80;3.38;;;17.50;66.50;;;;;;6096131;23;20158;-88
2024/03/05 05:29:03;;;;;;;4.85;3.67;;;17.50;66.50;;;;;;6124384;23;20185;-86
2024/03/05 05:32:11;;;;;;;5.15;3.75;;;17.60;66.70;;;;;;6033257;23;20154;-85
2024/03/05 05:34:44;;;;;;;4.40;3.60;;;17.50;66.30;;;;;;6028192;23;20214;-87
2024/03/05 05:37:31;;;;;;;5.18;3.40;;;17.50;66.80;;;;;;6074866;23;20151;-85
2024/03/05 05:40:16;;;;;;;5.80;3.67;;;17.50;66.60;;;;;;6073567;23;20154;-86
2024/03/05 05:42:55;;;;;;;5.35;3.63;;;17.50;66.70;;;;;;6027947;23;20159;-86
2024/03/05 05:45:52;;;;;;;5.70;3.85;;;17.50;66.80;;;;;;6047550;23;20150;-85
2024/03/05 05:48:56;;;;;;;4.40;3.53;;;17.50;66.60;;;;;;6028725;23;20154;-85
2024/03/05 05:52:06;;;;;;;3.97;3.42;;;17.60;66.40;;;;;;6052065;23;20681;-86
2024/03/05 05:54:55;;;;;;;5.38;3.78;;;17.60;66.40;;;;;;6052539;23;20183;-85
2024/03/05 05:57:59;;;;;;;5.30;3.70;;;17.60;66.20;;;;;;6034198;23;20197;-85
2024/03/05 06:04:34;;;;;;;5.18;3.75;;;17.50;66.50;;;;;;6001055;24;20166;-85
2024/03/05 06:07:13;;;;;;;5.38;3.92;;;17.60;66.30;;;;;;5995128;23;20188;-85
2024/03/05 06:09:49;;;;;;;4.70;3.60;;;17.50;66.50;;;;;;6058478;23;20154;-85
2024/03/05 06:16:16;;;;;;;4.18;3.28;;;17.60;66.40;;;;;;6037113;23;20190;-85
2024/03/05 06:18:56;;;;;;;5.47;3.78;;;17.60;66.30;;;;;;6024429;23;20259;-86
2024/03/05 06:22:07;;;;;;;5.25;3.75;;;17.60;66.20;;;;;;6047964;23;20604;-85
2024/03/05 06:24:52;;;;;;;5.60;3.72;;;17.60;66.30;;;;;;5916688;24;20191;-85
2024/03/05 06:27:24;;;;;;;5.78;3.75;;;17.60;66.30;;;;;;5915642;24;20221;-86
2024/03/05 06:30:08;;;;;;;4.20;3.60;;;17.50;66.40;;;;;;5943172;24;20186;-86
2024/03/05 06:32:48;;;;;;;6.10;3.92;;;17.60;66.00;;;;;;5920190;24;20176;-86
2024/03/05 06:35:29;;;;;;;4.15;3.50;;;17.60;66.10;;;;;;5925908;24;20199;-86
2024/03/05 06:38:15;;;;;;;5.32;3.60;;;17.60;66.10;;;;;;5914954;24;20578;-86
2024/03/05 06:41:03;;;;;;;5.15;3.85;;;17.60;66.10;;;;;;5852335;24;20157;-87
2024/03/05 06:43:36;;;;;;;5.38;3.67;;;17.60;66.10;;;;;;5909451;24;20221;-86
2024/03/05 06:46:29;;;;;;;5.53;4.07;;;17.60;66.20;;;;;;5911940;24;20240;-87
2024/03/05 06:49:27;;;;;;;4.65;3.78;;;17.60;66.00;;;;;;5910367;24;20526;-86
2024/03/05 06:58:08;;;;;;;6.03;4.00;;;17.60;65.90;;;;;;5964500;24;20156;-86
2024/03/05 07:01:41;;;;;;;5.55;3.70;;;17.60;65.80;;;;;;5987470;23;20167;-85
2024/03/05 07:03:56;;;;;;;4.75;3.85;;;17.60;65.60;;;;;;5956159;24;20157;-86
2024/03/05 07:06:26;;;;;;;4.72;4.10;;;17.60;65.50;;;;;;5923943;24;20583;-86
2024/03/05 07:09:06;;;;;;;4.63;3.55;;;17.60;65.70;;;;;;5876664;23;20249;-87
2024/03/05 07:11:57;;;;;;;4.85;3.88;;;17.60;65.70;;;;;;5971234;23;20657;-83
2024/03/05 07:14:38;;;;;;;4.70;3.58;;;17.60;66.20;;;;;;5920713;23;20165;-87
2024/03/05 07:17:17;;;;;;;4.70;3.85;;;17.60;65.40;;;;;;6008866;23;20155;-86
2024/03/05 07:20:24;;;;;;;4.10;3.47;;;17.60;65.00;;;;;;6023033;23;20154;-86
2024/03/05 07:23:11;;;;;;;5.05;3.78;;;17.70;65.00;;;;;;6010366;23;20162;-86
2024/03/05 07:25:38;;;;;;;4.95;3.63;;;17.70;65.00;;;;;;6018134;23;20165;-86
2024/03/05 07:28:10;;;;;;;4.55;3.67;;;17.60;65.00;;;;;;6030252;23;20203;-86
2024/03/05 07:31:28;;;;;;;4.80;3.67;;;17.80;64.40;;;;;;6042372;23;20172;-86
2024/03/05 07:34:40;;;;;;;6.13;3.92;;;17.80;63.80;;;;;;6026029;23;20164;-85
2024/03/05 07:37:16;;;;;;;;;;;;;;;;;;;;;
2024/03/05 07:40:16;;;;;;;4.35;3.40;;;18.00;63.80;;;;;;6058946;23;20197;-87
2024/03/05 07:42:53;;;;;;;4.88;3.40;;;17.80;64.00;;;;;;6016094;23;20154;-87
2024/03/05 07:45:59;;;;;;;5.72;3.63;;;17.90;63.80;;;;;;6021834;23;20219;-87
2024/03/05 07:48:29;;;;;;;4.72;3.63;;;17.90;63.60;;;;;;5973421;23;20167;-87
2024/03/05 07:51:43;;;;;;;4.72;3.70;;;17.90;63.50;;;;;;5923821;24;20201;-86
2024/03/05 07:54:39;;;;;;;6.15;3.90;;;17.90;64.00;;;;;;5907426;24;20157;-87
2024/03/05 07:57:13;;;;;;;5.88;3.63;;;17.90;63.70;;;;;;5925773;24;20157;-85
2024/03/05 08:00:19;;;;;;;;;;;;;;;;;;;;;
2024/03/05 08:02:57;;;;;;;4.28;3.65;;;17.90;63.20;;;;;;5819788;24;20183;-87
2024/03/05 08:05:41;;;;;;;4.97;3.53;;;17.90;63.60;;;;;;5908731;24;20161;-87
2024/03/05 08:08:12;;;;;;;4.80;3.70;;;17.90;63.40;;;;;;5935198;24;20171;-87
2024/03/05 08:10:37;;;;;;;4.60;3.40;;;17.90;64.60;;;;;;5931370;24;20220;-86
2024/03/05 08:13:13;;;;;;;4.07;3.38;;;17.80;64.70;;;;;;5932202;24;20164;-86
2024/03/05 08:16:05;;;;;;;5.25;3.30;;;17.80;64.20;;;;;;5931303;24;20276;-88
2024/03/05 08:18:32;;;;;;;5.20;3.67;;;17.80;64.80;;;;;;5916673;24;20184;-86
2024/03/05 08:21:20;;;;;;;4.55;3.65;;;17.80;63.80;;;;;;5948130;24;20156;-87
2024/03/05 08:23:53;;;;;;;5.18;3.63;;;17.80;63.80;;;;;;5936637;24;20160;-86
2024/03/05 08:26:25;;;;;;;4.07;3.50;;;17.80;63.70;;;;;;5776694;24;20187;-85
2024/03/05 08:29:17;;;;;;;4.80;3.50;;;17.90;63.20;;;;;;5843804;24;20167;-86
2024/03/05 08:31:59;;;;;;;4.47;3.55;;;18.00;63.70;;;;;;5794277;24;20164;-86
2024/03/05 08:35:12;;;;;;;4.45;3.53;;;17.90;63.90;;;;;;5815790;24;20197;-85
2024/03/05 08:38:05;;;;;;;5.00;3.58;;;17.80;64.10;;;;;;6050313;23;20157;-85
2024/03/05 08:40:49;;;;;;;4.30;3.20;;;17.80;64.20;;;;;;6024742;23;20172;-86
2024/03/05 08:43:20;;;;;;;4.22;3.35;;;17.90;63.80;;;;;;6044464;23;20158;-86
2024/03/05 08:45:59;;;;;;;4.40;3.45;;;17.90;64.20;;;;;;6048844;23;20548;-86
2024/03/05 08:49:15;;;;;;;4.35;3.53;;;17.90;64.10;;;;;;6000948;23;20158;-86
2024/03/05 08:52:06;;;;;;;4.70;3.33;;;17.80;64.40;;;;;;5938445;24;20161;-87
2024/03/05 08:55:29;;;;;;;4.00;3.30;;;17.80;64.70;;;;;;5927438;24;20179;-84
2024/03/05 08:58:06;;;;;;;3.97;3.40;;;17.90;64.00;;;;;;6008957;23;20155;-86
2024/03/05 09:01:09;;;;;;;;;;;;;;;;;;;;;
2024/03/05 09:04:20;;;;;;;3.95;3.30;;;17.80;63.90;;;;;;5994035;23;20167;-85
2024/03/05 09:09:51;;;;;;;;;;;;;;;;;;;;;
2024/03/05 09:12:51;;;;;;;4.97;3.63;;;17.90;64.20;;;;;;5964601;24;20203;-86
2024/03/05 09:15:29;;;;;;;4.80;3.50;;;17.90;63.50;;;;;;5946344;24;20256;-86
2024/03/05 09:18:35;;;;;;;4.10;3.50;;;17.90;63.60;;;;;;5916369;24;20160;-86
2024/03/05 09:21:21;;;;;;;;;;;;;;;;;;;;;
2024/03/05 09:24:16;;;;;;;4.70;3.25;;;17.90;64.40;;;;;;5961216;24;20183;-87
2024/03/05 09:26:47;;;;;;;4.40;3.42;;;17.90;63.70;;;;;;5939267;24;20234;-86
2024/03/05 09:29:35;;;;;;;4.35;3.45;;;17.90;63.70;;;;;;5940748;24;20458;-86
2024/03/05 09:32:40;;;;;;;4.40;3.50;;;18.00;63.30;;;;;;5931448;23;20168;-86
2024/03/05 09:36:04;;;;;;;5.47;3.42;;;18.10;62.70;;;;;;5908559;24;20189;-85
2024/03/05 09:38:59;;;;;;;4.22;3.60;;;18.10;62.50;;;;;;5884647;24;20178;-86
2024/03/05 09:41:45;;;;;;;4.32;3.60;;;18.10;62.40;;;;;;5884623;24;20168;-86
2024/03/05 09:44:48;;;;;;;4.18;3.20;;;18.10;63.00;;;;;;5930542;24;20583;-87
2024/03/05 09:47:46;;;;;;;4.22;3.50;;;18.00;62.50;;;;;;5812723;24;20217;-87
2024/03/05 09:50:56;;;;;;;4.90;3.60;;;18.10;62.50;;;;;;5775214;24;20176;-86
2024/03/05 09:53:42;;;;;;;4.45;3.60;;;18.10;61.90;;;;;;5792430;24;20160;-87
2024/03/05 09:56:46;;;;;;;3.58;3.25;;;18.10;62.90;;;;;;5836767;24;20214;-87
2024/03/05 09:59:39;;;;;;;4.63;3.50;;;18.10;62.40;;;;;;5923550;24;20264;-86
2024/03/05 10:05:38;;;;;;;4.85;3.50;;;18.10;62.70;;;;;;5943364;24;20233;-87
2024/03/05 10:08:42;;;;;;;4.00;3.10;;;18.10;62.80;;;;;;5944147;24;20204;-87
2024/03/05 10:11:31;;;;;;;5.80;3.63;;;18.00;62.60;;;;;;5892906;24;20194;-87
2024/03/05 10:14:05;;;;;;;4.88;3.60;;;18.10;62.80;;;;;;5959421;23;20196;-86
2024/03/05 10:16:34;;;;;;;4.30;3.55;;;18.10;63.00;;;;;;5997325;23;20200;-86
2024/03/05 10:19:40;;;;;;;5.00;3.70;;;18.00;63.30;;;;;;6022043;23;20566;-86
2024/03/05 10:22:21;;;;;;;3.88;3.20;;;18.00;63.50;;;;;;5996767;23;20252;-85
2024/03/05 10:25:34;;;;;;;3.75;3.17;;;18.00;63.00;;;;;;5997874;23;20679;-86
2024/03/05 10:28:14;;;;;;;4.80;3.40;;;18.10;63.20;;;;;;5969468;23;20172;-85
2024/03/05 10:31:23;;;;;;;3.60;3.10;;;18.10;62.60;;;;;;5960632;23;20156;-86
2024/03/05 10:34:28;;;;;;;5.15;3.20;;;18.10;63.60;;;;;;5940403;24;20156;-86
2024/03/05 10:40:37;;;;;;;4.75;3.20;;;18.10;63.60;;;;;;5963498;24;20154;-86
2024/03/05 10:43:11;;;;;;;4.45;3.40;;;18.00;63.70;;;;;;6129560;23;20234;-87
2024/03/05 10:45:44;;;;;;;5.18;3.38;;;18.00;64.10;;;;;;6105005;23;20234;-86
2024/03/05 10:48:23;;;;;;;4.07;3.10;;;17.90;64.30;;;;;;6058016;23;20214;-86
2024/03/05 10:50:49;;;;;;;3.72;3.20;;;17.90;63.90;;;;;;6102237;23;20157;-86
2024/03/05 10:54:05;;;;;;;5.38;3.05;;;17.90;63.80;;;;;;6049589;23;20164;-86
2024/03/05 10:56:58;;;;;;;4.40;3.25;;;18.00;63.60;;;;;;5931632;24;20192;-86
2024/03/05 10:59:58;;;;;;;4.25;3.20;;;18.00;64.20;;;;;;5933104;24;20234;-86
2024/03/05 11:02:51;;;;;;;4.40;3.40;;;18.00;63.80;;;;;;5877090;24;20164;-86
2024/03/05 11:05:44;;;;;;;3.70;3.22;;;17.90;64.00;;;;;;5896096;24;20219;-86
2024/03/05 11:08:20;;;;;;;4.00;3.25;;;18.00;62.60;;;;;;5878927;24;20158;-87
2024/03/05 11:11:46;;;;;;;4.15;3.22;;;18.00;63.80;;;;;;5914800;24;20221;-87
2024/03/05 11:14:25;;;;;;;5.15;3.28;;;17.90;63.80;;;;;;5875979;24;20166;-86
2024/03/05 11:17:14;;;;;;;5.20;3.10;;;17.90;64.30;;;;;;5829286;24;20166;-87
2024/03/05 11:23:29;;;;;;;3.97;3.20;;;18.00;64.00;;;;;;5823405;24;20163;-85
2024/03/05 11:26:00;;;;;;;3.95;3.00;;;18.00;63.60;;;;;;5829514;24;20162;-85
2024/03/05 11:29:01;;;;;;;5.57;3.50;;;18.00;64.00;;;;;;5831514;24;20314;-87
2024/03/05 11:31:31;;;;;;;4.57;2.90;;;18.00;63.50;;;;;;5833832;24;20173;-86
2024/03/05 11:34:17;;;;;;;4.30;3.10;;;18.00;63.70;;;;;;5856059;24;20165;-86
2024/03/05 11:36:56;;;;;;;3.55;3.00;;;17.90;63.90;;;;;;5858507;24;20166;-86
2024/03/05 11:39:46;;;;;;;4.63;3.20;;;18.00;63.70;;;;;;5869973;24;20168;-86
2024/03/05 11:43:53;;;;;;;3.67;2.78;;;18.00;63.50;;;;;;5895197;24;20217;-85
2024/03/05 11:46:12;;;;;;;3.55;2.75;;;18.00;64.40;;;;;;5854584;24;20162;-87
2024/03/05 11:49:10;;;;;;;5.70;3.38;;;18.00;63.50;;;;;;5837531;24;20503;-85
2024/03/05 11:52:18;;;;;;;4.68;3.53;;;18.00;64.10;;;;;;5927644;24;20202;-87
2024/03/05 11:54:58;;;;;;;3.92;3.08;;;17.90;63.50;;;;;;5904446;24;20180;-87
2024/03/05 11:57:26;;;;;;;8.13;3.35;;;18.00;63.10;;;;;;5929787;24;20157;-87
2024/03/05 11:59:52;;;;;;;3.78;2.88;;;18.00;63.00;;;;;;5986847;23;20591;-86
2024/03/05 12:02:21;;;;;;;3.25;2.92;;;18.00;62.30;;;;;;6001777;23;20247;-87
2024/03/05 12:04:53;;;;;;;3.50;3.10;;;18.00;63.30;;;;;;5999938;23;20166;-86
2024/03/05 12:07:32;;;;;;;4.57;2.88;;;18.00;63.10;;;;;;6009876;23;20233;-86
2024/03/05 12:10:03;;;;;;;3.35;3.00;;;18.00;63.00;;;;;;5964634;23;20262;-84
2024/03/05 12:12:30;;;;;;;3.30;3.00;;;18.00;62.70;;;;;;5961900;23;20249;-84
2024/03/05 12:15:04;;;;;;;4.18;3.30;;;18.00;62.40;;;;;;6024914;23;20183;-84
2024/03/05 12:17:32;;;;;;;4.25;3.35;;;18.00;62.70;;;;;;6065234;23;20164;-84
2024/03/05 12:20:04;;;;;;;3.63;2.83;;;18.10;61.60;;;;;;6069625;23;20173;-84
2024/03/05 12:22:30;;;;;;;4.80;3.22;;;18.10;63.50;;;;;;6023537;23;20173;-84
2024/03/05 12:25:07;;;;;;;3.35;3.00;;;18.20;62.40;;;;;;6022523;23;20636;-85
2024/03/05 12:27:39;;;;;;;3.58;3.03;;;18.30;62.80;;;;;;6001149;23;20157;-84
2024/03/05 12:30:14;;;;;;;4.28;2.80;;;18.30;62.40;;;;;;6032210;23;20152;-85
2024/03/05 12:32:52;;;;;;;3.58;2.67;;;18.20;62.40;;;;;;6148651;23;20178;-84
2024/03/05 12:35:18;;;;;;;3.47;2.83;;;18.10;62.40;;;;;;6108917;23;20190;-86
2024/03/05 12:37:44;;;;;;;3.30;2.97;;;18.10;62.80;;;;;;6132697;23;20139;-85
2024/03/05 12:40:15;;;;;;;3.33;2.80;;;18.00;62.40;;;;;;6120950;23;20177;-84
2024/03/05 12:43:02;;;;;;;;;;;;;;;;;;;;;
2024/03/05 12:45:31;;;;;;;3.60;2.88;;;18.00;62.80;;;;;;6135998;23;20240;-84
2024/03/05 12:47:59;;;;;;;4.20;3.10;;;18.00;62.80;;;;;;6191960;23;20181;-85
2024/03/05 12:50:29;;;;;;;3.33;2.58;;;18.10;62.40;;;;;;6173826;23;20167;-86
2024/03/05 12:53:04;;;;;;;3.83;2.90;;;18.00;62.40;;;;;;6123436;23;20133;-83
2024/03/05 12:55:30;;;;;;;3.97;3.00;;;18.10;61.60;;;;;;6122063;23;20182;-84
2024/03/05 12:58:06;;;;;;;3.38;2.80;;;18.10;61.50;;;;;;6121343;23;20467;-84
2024/03/05 13:00:35;;;;;;;3.65;2.80;;;18.10;62.10;;;;;;6096698;23;20227;-85
2024/03/05 13:03:04;;;;;;;3.35;2.80;;;18.00;62.10;;;;;;6120867;23;20144;-84
2024/03/05 13:05:33;;;;;;;3.88;3.03;;;18.00;62.50;;;;;;6098097;23;20158;-86
2024/03/05 13:08:06;;;;;;;3.45;2.70;;;18.00;62.40;;;;;;6121910;23;20160;-82
2024/03/05 13:10:33;;;;;;;3.17;2.60;;;17.90;62.20;;;;;;6124796;23;20140;-83
2024/03/05 13:12:59;;;;;;;3.78;3.10;;;18.00;61.70;;;;;;6123252;23;20192;-83
2024/03/05 13:15:25;;;;;;;4.50;3.10;;;18.10;61.80;;;;;;6100578;23;20176;-84
2024/03/05 13:17:52;;;;;;;3.42;3.00;;;18.00;61.50;;;;;;6102991;23;20149;-84
2024/03/05 13:20:18;;;;;;;3.90;2.95;;;18.10;61.90;;;;;;6127807;23;20132;-86
2024/03/05 13:22:49;;;;;;;3.28;2.60;;;18.10;61.90;;;;;;6127315;23;20132;-84
2024/03/05 13:25:21;;;;;;;3.53;2.90;;;18.10;62.30;;;;;;6126168;23;20533;-84
2024/03/05 13:27:51;;;;;;;4.63;2.70;;;18.10;62.00;;;;;;6103581;23;20167;-85
2024/03/05 13:30:19;;;;;;;3.60;2.85;;;18.00;62.20;;;;;;6053646;23;20163;-85
2024/03/05 13:32:47;;;;;;;3.55;2.90;;;18.00;62.00;;;;;;6127078;23;20614;-84
2024/03/05 13:35:15;;;;;;;3.28;2.90;;;18.00;62.50;;;;;;6205283;23;20237;-85
2024/03/05 13:37:47;;;;;;;3.10;2.80;;;18.00;62.70;;;;;;6127989;23;20148;-85
2024/03/05 13:40:18;;;;;;;3.33;2.70;;;18.00;62.00;;;;;;6209427;23;20151;-85
2024/03/05 13:42:45;;;;;;;3.70;2.90;;;18.00;62.60;;;;;;6129568;23;20159;-85
2024/03/05 13:45:12;;;;;;;2.92;2.40;;;18.00;62.70;;;;;;6129561;23;20577;-85
2024/03/05 13:47:39;;;;;;;3.05;2.70;;;18.00;62.30;;;;;;6130490;23;20133;-84
2024/03/05 13:50:10;;;;;;;3.65;2.75;;;18.00;62.10;;;;;;6130746;23;20143;-84
2024/03/05 13:52:41;;;;;;;2.90;2.53;;;17.90;62.30;;;;;;6129470;23;20199;-84
2024/03/05 13:55:09;;;;;;;3.25;2.53;;;18.10;61.40;;;;;;6129952;23;20186;-84
2024/03/05 13:57:35;;;;;;;3.90;2.90;;;18.10;62.30;;;;;;6130419;23;20132;-84
2024/03/05 14:00:02;;;;;;;3.33;2.63;;;18.00;62.60;;;;;;6132477;23;20227;-84
2024/03/05 14:02:28;;;;;;;4.53;2.92;;;18.00;62.10;;;;;;6130075;23;20598;-84
2024/03/05 14:04:54;;;;;;;3.03;2.67;;;18.00;62.70;;;;;;6130250;23;20156;-84
2024/03/05 14:07:20;;;;;;;3.33;2.75;;;18.00;62.30;;;;;;6128551;23;20156;-83
2024/03/05 14:09:47;;;;;;;3.42;2.50;;;18.00;62.00;;;;;;6105742;23;20158;-83
2024/03/05 14:12:12;;;;;;;7.75;3.00;;;18.10;62.10;;;;;;6105551;23;20200;-83
2024/03/05 14:14:38;;;;;;;3.83;2.60;;;18.00;62.30;;;;;;6129376;23;20152;-83
2024/03/05 14:17:09;;;;;;;3.30;2.53;;;18.00;62.40;;;;;;6129326;23;20133;-83
2024/03/05 14:19:38;;;;;;;3.40;2.72;;;18.10;62.40;;;;;;6126814;23;20170;-84
2024/03/05 14:22:05;;;;;;;3.33;2.80;;;18.00;62.40;;;;;;6202298;23;20148;-85
2024/03/05 14:24:30;;;;;;;3.20;2.80;;;18.00;62.70;;;;;;6125839;23;20154;-85
2024/03/05 14:27:01;;;;;;;3.55;2.80;;;17.90;62.80;;;;;;6126336;23;20180;-84
2024/03/05 14:29:28;;;;;;;3.60;2.88;;;18.00;62.40;;;;;;6101683;23;20167;-84
2024/03/05 14:31:54;;;;;;;4.13;2.88;;;18.00;62.30;;;;;;6103361;23;20144;-84
2024/03/05 14:34:22;;;;;;;2.72;2.40;;;17.90;62.90;;;;;;6128754;23;20128;-84
2024/03/05 14:36:50;;;;;;;4.55;2.90;;;17.90;62.70;;;;;;6075514;23;20159;-83
2024/03/05 14:39:16;;;;;;;3.15;2.80;;;18.00;62.10;;;;;;6049882;23;20182;-85
2024/03/05 14:41:42;;;;;;;3.55;2.78;;;18.00;61.90;;;;;;6122798;23;20143;-83
2024/03/05 14:44:12;;;;;;;2.70;2.47;;;18.00;61.60;;;;;;6123284;23;20457;-84
2024/03/05 14:46:40;;;;;;;3.78;2.80;;;18.10;60.20;;;;;;6174845;23;20159;-83
2024/03/05 14:49:11;;;;;;;2.75;2.30;;;18.10;60.30;;;;;;6101709;23;20171;-85
2024/03/05 14:51:38;;;;;;;4.30;2.60;;;18.20;60.30;;;;;;6102976;23;20156;-85
2024/03/05 14:54:07;;;;;;;3.33;2.70;;;18.10;60.50;;;;;;6098564;23;20148;-85
2024/03/05 14:56:36;;;;;;;3.75;2.80;;;18.20;59.80;;;;;;6099367;23;20176;-86
2024/03/05 14:59:09;;;;;;;2.97;2.63;;;18.20;60.00;;;;;;6125773;23;20152;-86
2024/03/05 15:01:34;;;;;;;2.72;2.40;;;18.20;60.00;;;;;;6096906;23;20619;-83
2024/03/05 15:04:00;;;;;;;2.42;2.20;;;18.20;60.60;;;;;;6097271;23;20172;-84
2024/03/05 15:06:49;;;;;;;2.85;2.55;;;18.20;59.30;;;;;;6098641;23;20144;-83
2024/03/05 15:09:54;;;;;;;3.22;2.50;;;18.20;60.40;;;;;;6128990;23;20167;-85
2024/03/05 15:12:21;;;;;;;3.03;2.47;;;18.10;60.70;;;;;;6071609;23;20615;-82
2024/03/05 15:14:47;;;;;;;2.97;2.58;;;18.10;61.60;;;;;;6043489;23;20188;-83
2024/03/05 15:17:50;;;;;;;2.67;2.40;;;18.10;61.70;;;;;;6092188;23;20220;-84
2024/03/05 15:20:22;;;;;;;3.72;2.58;;;18.00;61.80;;;;;;5951944;23;20162;-84
2024/03/05 15:22:48;;;;;;;2.92;2.33;;;18.10;61.60;;;;;;5977344;24;20155;-84
2024/03/05 15:25:15;;;;;;;3.10;2.42;;;18.00;61.20;;;;;;5932149;23;20156;-83
2024/03/05 15:27:42;;;;;;;3.25;2.80;;;18.10;60.10;;;;;;5956310;23;20155;-85
2024/03/05 15:30:13;;;;;;;3.70;2.65;;;18.00;61.40;;;;;;5931806;23;20174;-85
2024/03/05 15:32:50;;;;;;;5.65;2.80;;;18.10;61.00;;;;;;6055089;23;20159;-85
2024/03/05 15:35:18;;;;;;;6.05;2.63;;;18.10;61.60;;;;;;5957379;23;20183;-84
2024/03/05 15:37:45;;;;;;;9.20;2.80;;;18.20;61.50;;;;;;5955097;23;20535;-84
2024/03/05 15:40:18;;;;;;;6.15;2.90;;;18.20;61.90;;;;;;5978159;24;20175;-84
2024/03/05 15:42:45;;;;;;;4.28;2.53;;;18.20;61.90;;;;;;5933774;24;20170;-83
2024/03/05 15:45:13;;;;;;;3.08;2.70;;;18.20;61.60;;;;;;5980320;24;20179;-83
2024/03/05 15:47:40;;;;;;;3.45;2.50;;;18.20;61.40;;;;;;5980833;24;20155;-83
2024/03/05 15:50:12;;;;;;;5.25;2.60;;;18.20;61.00;;;;;;5997392;23;20494;-83
2024/03/05 15:52:38;;;;;;;4.07;2.83;;;18.20;60.60;;;;;;6044564;23;20148;-86
2024/03/05 15:55:04;;;;;;;4.72;2.88;;;18.20;61.60;;;;;;6101528;23;20172;-84
2024/03/05 15:57:53;;;;;;;3.00;2.53;;;18.10;62.20;;;;;;6095489;23;20157;-84
2024/03/05 16:00:41;;;;;;;5.28;2.63;;;18.10;61.30;;;;;;6083015;23;20220;-85
2024/03/05 16:03:44;;;;;;;3.90;2.50;;;18.10;62.30;;;;;;6075208;23;20224;-87
2024/03/05 16:07:01;;;;;;;3.92;2.75;;;18.10;61.40;;;;;;6167561;23;20196;-86
2024/03/05 16:09:31;;;;;;;9.88;2.97;;;18.20;61.60;;;;;;6012935;23;20240;-87
2024/03/05 16:12:58;;;;;;;4.55;2.65;;;18.20;60.60;;;;;;6024631;23;20220;-87
2024/03/05 16:15:33;;;;;;;4.40;2.75;;;18.20;61.00;;;;;;5966129;24;20366;-85
2024/03/05 16:19:01;;;;;;;5.13;2.60;;;18.20;60.60;;;;;;5993649;24;20162;-86
2024/03/05 16:22:27;;;;;;;;;;;;;;;;;;;;;
2024/03/05 16:24:59;;;;;;;3.83;2.80;;;18.30;61.60;;;;;;5878064;24;20182;-84
2024/03/05 16:27:34;;;;;;;6.13;2.53;;;18.30;61.20;;;;;;5803445;24;20164;-85
2024/03/05 16:30:06;;;;;;;3.75;2.50;;;18.30;60.60;;;;;;5844443;24;20556;-84
2024/03/05 16:33:17;;;;;;;6.00;2.40;;;18.30;60.60;;;;;;5891061;24;20157;-86
2024/03/05 16:35:46;;;;;;;4.97;2.22;;;18.30;61.50;;;;;;5807676;24;20613;-83
2024/03/05 16:38:35;;;;;;;4.07;2.30;;;18.30;60.90;;;;;;5830117;24;20177;-86
2024/03/05 16:41:28;;;;;;;8.10;2.40;;;18.40;60.70;;;;;;5802487;24;20160;-84
2024/03/05 16:43:58;;;;;;;5.70;2.25;;;18.30;61.10;;;;;;5814700;24;20182;-85
2024/03/05 16:50:44;;;;;;;2.80;2.15;;;18.40;61.90;;;;;;5862043;24;20186;-86
2024/03/05 16:53:37;;;;;;;3.78;2.42;;;18.40;61.40;;;;;;5838776;24;20163;-85
2024/03/05 16:57:06;;;;;;;;;;;;;;;;;;;;;
2024/03/05 16:59:44;;;;;;;3.75;2.45;;;18.40;61.20;;;;;;5904014;24;20226;-82
2024/03/05 17:05:57;;;;;;;4.03;2.55;;;18.50;62.00;;;;;;5867092;24;20166;-85
2024/03/05 17:08:48;;;;;;;4.47;2.30;;;18.50;61.40;;;;;;5910756;24;20172;-85
2024/03/05 17:15:25;;;;;;;3.95;2.58;;;18.50;62.60;;;;;;5926933;24;20260;-85
2024/03/05 17:19:09;;;;;;;3.40;2.55;;;18.50;61.90;;;;;;5880603;24;20352;-86
2024/03/05 17:21:48;;;;;;;5.05;2.47;;;18.60;62.30;;;;;;5883943;24;20187;-87
2024/03/05 17:25:04;;;;;;;;;;;;;;;;;;;;;
2024/03/05 17:34:13;;;;;;;3.22;2.30;;;18.70;62.20;;;;;;5776335;24;20222;-86
2024/03/05 17:37:00;;;;;;;3.92;2.05;;;18.70;62.10;;;;;;5797913;24;20191;-85
2024/03/05 17:39:42;;;;;;;5.65;2.40;;;18.60;62.40;;;;;;5775314;24;20165;-84
2024/03/05 17:42:39;;;;;;;3.33;2.13;;;18.60;61.90;;;;;;5753185;25;20172;-84
2024/03/05 17:45:37;;;;;;;4.65;2.22;;;18.70;62.50;;;;;;5751549;25;20232;-83
2024/03/05 17:48:50;;;;;;;3.38;2.47;;;18.80;62.00;;;;;;5717489;24;20206;-85
2024/03/05 17:51:35;;;;;;;;;;;;;;;;;;;;;
2024/03/05 17:54:33;;;;;;;3.83;2.22;;;18.70;61.30;;;;;;5752845;24;20168;-86
2024/03/05 17:57:14;;;;;;;;;;;;;;;;;;;;;
2024/03/05 17:59:50;;;;;;;4.03;2.03;;;18.80;62.60;;;;;;5590365;25;20188;-84
2024/03/05 18:02:55;;;;;;;7.40;2.63;;;18.70;62.60;;;;;;5551193;25;20171;-83
2024/03/05 18:12:19;;;;;;;5.90;2.22;;;18.80;62.40;;;;;;5781243;24;20168;-82
2024/03/05 18:15:54;;;;;;;6.35;2.60;;;19.00;63.60;;;;;;5904913;23;20166;-85
2024/03/05 18:18:43;;;;;;;4.32;2.25;;;19.00;64.70;;;;;;5876620;23;20200;-88
2024/03/05 18:21:28;;;;;;;3.38;2.20;;;19.00;62.30;;;;;;5820701;24;20160;-86
2024/03/05 18:23:56;;;;;;;3.42;2.63;;;19.00;61.80;;;;;;5821552;24;20159;-84
2024/03/05 18:26:55;;;;;;;5.32;2.13;;;18.90;64.30;;;;;;5802716;24;20306;-86
2024/03/05 18:30:48;;;;;;;;;;;;;;;;;;;;;
2024/03/05 18:33:07;;;;;;;5.65;2.47;;;18.80;63.60;;;;;;6012289;23;20696;-87
2024/03/05 18:36:15;;;;;;;;;;;;;;;;;;;;;
2024/03/05 18:39:18;;;;;;;;;;;;;;;;;;;;;
2024/03/05 18:43:23;;;;;;;;;;;;;;;;;;;;;
2024/03/05 18:45:17;;;;;;;3.03;2.30;;;18.80;61.80;;;;;;5851850;24;20187;-86
2024/03/05 18:47:58;;;;;;;6.70;2.47;;;18.80;62.70;;;;;;5845941;24;20159;-86
2024/03/05 18:50:28;;;;;;;3.75;2.28;;;18.80;63.00;;;;;;5843579;24;20167;-85
2024/03/05 18:57:14;;;;;;;5.65;2.63;;;18.90;61.40;;;;;;5977616;24;20606;-87
2024/03/05 18:59:21;;;;;;;4.40;2.45;;;18.80;61.30;;;;;;5925887;24;20235;-85
2024/03/05 19:02:47;;;;;;;;;;;;;;;;;;;;;
2024/03/05 19:06:11;;;;;;;6.20;2.45;;;18.80;61.20;;;;;;5951809;24;20168;-86
2024/03/05 19:09:07;;;;;;;7.13;2.30;;;18.80;61.50;;;;;;5911173;24;20166;-85
2024/03/05 19:11:36;;;;;;;4.63;2.03;;;18.70;60.80;;;;;;6051550;23;20161;-85
2024/03/05 19:14:57;;;;;;;3.88;2.40;;;18.60;62.50;;;;;;6025257;23;20193;-86
2024/03/05 19:17:23;;;;;;;2.92;1.90;;;18.70;61.40;;;;;;5960232;24;20163;-85
2024/03/05 19:19:50;;;;;;;5.03;2.20;;;18.70;62.80;;;;;;5923730;23;20186;-86
2024/03/05 19:22:42;;;;;;;3.65;2.10;;;18.70;62.90;;;;;;6011072;23;20635;-85
2024/03/05 19:25:17;;;;;;;4.40;2.10;;;18.70;63.10;;;;;;6013351;23;20167;-85
2024/03/05 19:31:49;;;;;;;;;;;;;;;;;;;;;
2024/03/05 19:34:25;;;;;;;3.25;2.00;;;18.60;64.00;;;;;;5985123;24;20650;-85
2024/03/05 19:37:00;;;;;;;4.35;2.00;;;18.70;63.90;;;;;;5982988;24;20186;-87
2024/03/05 19:39:55;;;;;;;4.35;2.05;;;18.70;62.90;;;;;;5909338;24;20247;-84
2024/03/05 19:42:21;;;;;;;3.97;2.30;;;18.70;63.80;;;;;;5877760;24;20157;-84
2024/03/05 19:44:51;;;;;;;4.10;2.70;;;18.70;63.00;;;;;;5893166;24;20161;-86
2024/03/05 19:47:24;;;;;;;3.38;2.35;;;18.70;63.40;;;;;;5874691;24;20158;-85
2024/03/05 19:49:51;;;;;;;4.05;2.22;;;18.60;64.10;;;;;;5874343;24;20159;-84
2024/03/05 19:52:22;;;;;;;5.28;2.13;;;18.60;64.40;;;;;;5876310;24;20217;-83
2024/03/05 19:54:54;;;;;;;3.85;2.28;;;18.60;64.50;;;;;;5938540;24;20239;-83
2024/03/05 19:57:21;;;;;;;4.40;2.20;;;18.60;64.10;;;;;;5930863;24;20493;-85
2024/03/05 20:03:38;;;;;;;4.72;2.13;;;18.60;65.00;;;;;;5938473;23;20189;-85
2024/03/05 20:10:20;;;;;;;4.38;2.20;;;18.50;63.80;;;;;;6021204;23;20551;-84
2024/03/05 20:13:12;;;;;;;8.98;2.40;;;18.60;64.90;;;;;;6062124;23;20673;-84
2024/03/05 20:15:38;;;;;;;2.70;1.98;;;18.60;63.80;;;;;;5956262;23;20185;-83
2024/03/05 20:18:45;;;;;;;4.22;2.17;;;18.60;63.90;;;;;;6046274;23;20161;-83
2024/03/05 20:21:46;;;;;;;4.88;2.00;;;18.60;63.90;;;;;;5991746;23;20583;-84
2024/03/05 20:28:15;;;;;;;2.97;2.30;;;18.60;62.50;;;;;;6005613;23;20214;-84
2024/03/05 20:31:20;;;;;;;3.25;1.90;;;18.60;64.00;;;;;;6052990;23;20170;-84
2024/03/05 20:34:22;;;;;;;3.88;2.28;;;18.60;64.40;;;;;;6035287;23;20161;-84
2024/03/05 20:41:12;;;;;;;5.00;2.10;;;18.50;64.40;;;;;;5984765;24;20204;-84
2024/03/05 20:47:32;;;;;;;4.07;2.10;;;18.50;63.00;;;;;;5954612;24;20550;-84
2024/03/05 20:51:27;;;;;;;4.07;2.08;;;18.50;62.50;;;;;;5948783;24;20617;-84
2024/03/05 20:57:33;;;;;;;5.68;2.20;;;18.50;64.00;;;;;;5872865;24;20184;-84
2024/03/05 21:06:49;;;;;;;4.35;2.30;;;18.30;66.80;;;;;;5873222;24;20153;-84
2024/03/05 21:13:08;;;;;;;5.93;2.17;;;18.30;67.00;;;;;;5931913;24;20239;-84
2024/03/05 21:23:00;;;;;;;3.90;1.77;;;18.20;67.40;;;;;;6125773;23;20504;-85